createdAt,value
2022-12-25T00:01:46.244Z,100627.97
2022-12-25T00:05:47.947Z,100621.81
2022-12-25T00:09:49.677Z,100618.28
2022-12-25T00:13:51.244Z,100618.38
2022-12-25T00:17:53.043Z,100614.69
2022-12-25T00:21:54.670Z,100611.16
2022-12-25T00:25:56.863Z,100626.06
2022-12-25T00:29:58.348Z,100627.06
2022-12-25T00:34:00.084Z,100623.75
2022-12-25T00:38:01.648Z,100625.56
2022-12-25T00:42:18.691Z,100622.19
2022-12-25T00:46:20.313Z,100632.09
2022-12-25T00:50:22.263Z,100625.97
2022-12-25T00:54:23.780Z,100621.34
2022-12-25T00:58:27.414Z,100614.53
2022-12-25T01:02:28.908Z,100618.25
2022-12-25T01:06:30.644Z,100613.78
2022-12-25T01:10:32.136Z,100624.66
2022-12-25T01:14:33.724Z,100621.31
2022-12-25T01:18:35.777Z,100627.56
2022-12-25T01:22:37.527Z,100621.06
2022-12-25T01:26:39.012Z,100622.38
2022-12-25T01:30:47.279Z,100619.13
2022-12-25T01:34:53.867Z,100630.50
2022-12-25T01:38:57.640Z,100630.19
2022-12-25T01:42:59.215Z,100649.72
2022-12-25T01:47:00.718Z,100656.50
2022-12-25T01:51:07.310Z,100668.94
2022-12-25T01:55:11.261Z,100670.53
2022-12-25T01:59:16.336Z,100661.00
2022-12-25T02:03:19.162Z,100660.72
2022-12-25T02:07:24.252Z,100662.34
2022-12-25T02:11:44.277Z,100658.91
2022-12-25T02:15:59.407Z,100664.50
2022-12-25T02:20:19.751Z,100670.63
2022-12-25T02:24:27.412Z,100675.13
2022-12-25T02:29:02.868Z,100676.16
2022-12-25T02:33:33.922Z,100669.22
2022-12-25T02:37:42.453Z,100680.88
2022-12-25T02:41:47.968Z,100672.44
2022-12-25T02:46:28.185Z,100670.84
2022-12-25T02:50:48.458Z,100678.03
2022-12-25T02:55:15.447Z,100683.59
2022-12-25T02:59:38.472Z,100689.78
2022-12-25T03:04:01.403Z,100693.06
2022-12-25T03:08:08.759Z,100685.25
2022-12-25T03:12:22.089Z,100673.13
2022-12-25T03:16:42.353Z,100679.69
2022-12-25T03:21:02.959Z,100672.81
2022-12-25T03:25:23.805Z,100670.34
2022-12-25T03:29:47.823Z,100668.50
2022-12-25T03:34:37.210Z,100671.72
2022-12-25T03:39:18.090Z,100671.25
2022-12-25T03:43:51.266Z,100674.16
2022-12-25T03:48:13.416Z,100688.41
2022-12-25T03:52:37.917Z,100693.81
2022-12-25T03:56:59.100Z,100691.38
2022-12-25T04:01:18.940Z,100691.47
2022-12-25T04:05:39.301Z,100714.13
2022-12-25T04:09:59.220Z,100714.06
2022-12-25T04:14:19.075Z,100721.72
2022-12-25T04:18:39.125Z,100720.13
2022-12-25T04:22:59.455Z,100722.00
2022-12-25T04:27:19.676Z,100714.66
2022-12-25T04:31:39.821Z,100708.66
2022-12-25T04:36:20.750Z,100716.84
2022-12-25T04:40:22.259Z,100716.19
2022-12-25T04:44:23.786Z,100706.81
2022-12-25T04:48:26.431Z,100711.34
2022-12-25T04:52:28.233Z,100710.97
2022-12-25T04:56:29.944Z,100722.38
2022-12-25T05:00:31.495Z,100718.91
2022-12-25T05:04:33.122Z,100732.13
2022-12-25T05:08:36.223Z,100737.63
2022-12-25T05:12:37.762Z,100742.22
2022-12-25T05:16:39.344Z,100738.88
2022-12-25T05:20:40.854Z,100739.47
2022-12-25T05:24:42.389Z,100740.50
2022-12-25T05:28:44.086Z,100735.28
2022-12-25T05:32:47.459Z,100736.22
2022-12-25T05:36:48.974Z,100731.97
2022-12-25T05:40:52.037Z,100737.53
2022-12-25T05:44:53.574Z,100729.81
2022-12-25T05:48:55.219Z,100730.13
2022-12-25T05:53:00.187Z,100740.63
2022-12-25T05:57:04.680Z,100738.97
2022-12-25T06:01:15.659Z,100741.78
2022-12-25T06:05:17.366Z,100744.63
2022-12-25T06:09:19.318Z,100735.03
2022-12-25T06:13:20.827Z,100724.66
2022-12-25T06:17:26.223Z,100722.13
2022-12-25T06:21:27.846Z,100730.94
2022-12-25T06:25:29.334Z,100738.72
2022-12-25T06:29:30.944Z,100724.66
2022-12-25T06:33:32.449Z,100709.03
2022-12-25T06:37:34.224Z,100705.41
2022-12-25T06:41:36.233Z,100716.91
2022-12-25T06:45:37.839Z,100721.38
2022-12-25T06:49:39.374Z,100740.59
2022-12-25T06:53:41.125Z,100739.09
2022-12-25T06:57:42.741Z,100730.66
2022-12-25T07:01:54.892Z,100734.81
2022-12-25T07:05:56.542Z,100743.41
2022-12-25T07:09:58.050Z,100741.47
2022-12-25T07:13:59.613Z,100728.56
2022-12-25T07:18:01.575Z,100734.50
2022-12-25T07:22:03.125Z,100728.13
2022-12-25T07:26:05.236Z,100754.03
2022-12-25T07:30:07.258Z,100758.19
2022-12-25T07:34:08.978Z,100756.09
2022-12-25T07:38:11.293Z,100757.22
2022-12-25T07:42:13.013Z,100751.06
2022-12-25T07:46:14.537Z,100749.31
2022-12-25T07:50:16.549Z,100749.03
2022-12-25T07:54:18.344Z,100743.50
2022-12-25T07:58:23.268Z,100764.56
2022-12-25T08:02:28.759Z,100766.44
2022-12-25T08:06:33.746Z,100773.59
2022-12-25T08:10:37.244Z,100769.19
2022-12-25T08:14:38.787Z,100769.53
2022-12-25T08:18:40.569Z,100768.25
2022-12-25T08:22:42.054Z,100763.38
2022-12-25T08:26:43.604Z,100754.56
2022-12-25T08:30:45.361Z,100765.84
2022-12-25T08:34:46.913Z,100766.59
2022-12-25T08:38:49.070Z,100773.09
2022-12-25T08:42:50.676Z,100769.44
2022-12-25T08:46:52.177Z,100761.44
2022-12-25T08:50:54.380Z,100770.75
2022-12-25T08:54:56.203Z,100765.44
2022-12-25T08:58:57.716Z,100743.91
2022-12-25T09:02:59.454Z,100730.78
2022-12-25T09:07:02.624Z,100733.19
2022-12-25T09:11:06.997Z,100726.69
2022-12-25T09:15:09.235Z,100727.56
2022-12-25T09:19:10.874Z,100725.47
2022-12-25T09:23:14.282Z,100713.41
2022-12-25T09:27:16.294Z,100709.63
2022-12-25T09:31:17.952Z,100702.88
2022-12-25T09:35:19.609Z,100680.78
2022-12-25T09:39:21.156Z,100696.34
2022-12-25T09:43:23.521Z,100692.47
2022-12-25T09:47:29.189Z,100672.31
2022-12-25T09:51:35.442Z,100668.38
2022-12-25T09:55:45.965Z,100663.50
2022-12-25T09:59:47.621Z,100659.16
2022-12-25T10:04:20.027Z,100655.06
2022-12-25T10:08:33.917Z,100650.91
2022-12-25T10:12:59.799Z,100671.19
2022-12-25T10:17:31.421Z,100671.31
2022-12-25T10:21:33.544Z,100661.13
2022-12-25T10:25:38.833Z,100645.41
2022-12-25T10:29:41.386Z,100656.31
2022-12-25T10:33:42.969Z,100645.53
2022-12-25T10:37:52.701Z,100635.03
2022-12-25T10:42:22.982Z,100612.44
2022-12-25T10:46:27.063Z,100644.22
2022-12-25T10:50:29.009Z,100637.34
2022-12-25T10:54:34.981Z,100629.22
2022-12-25T10:58:36.432Z,100637.09
2022-12-25T11:02:40.786Z,100626.78
2022-12-25T11:06:42.709Z,100622.50
2022-12-25T11:10:53.536Z,100610.47
2022-12-25T11:15:00.725Z,100589.66
2022-12-25T11:19:02.700Z,100614.50
2022-12-25T11:23:10.522Z,100616.88
2022-12-25T11:27:23.695Z,100621.28
2022-12-25T11:31:53.165Z,100600.47
2022-12-25T11:35:56.921Z,100596.41
2022-12-25T11:39:58.479Z,100598.59
2022-12-25T11:44:06.893Z,100561.38
2022-12-25T11:48:18.003Z,100554.16
2022-12-25T11:52:21.025Z,100559.75
2022-12-25T11:56:26.119Z,100541.19
2022-12-25T12:00:30.951Z,100530.06
2022-12-25T12:04:43.166Z,100512.22
2022-12-25T12:08:48.904Z,100501.88
2022-12-25T12:13:16.530Z,100501.81
2022-12-25T12:17:18.921Z,100493.16
2022-12-25T12:21:27.319Z,100509.78
2022-12-25T12:25:30.185Z,100474.00
2022-12-25T12:29:42.954Z,100483.28
2022-12-25T12:33:57.511Z,100484.41
2022-12-25T12:38:02.186Z,100487.47
2022-12-25T12:42:17.815Z,100495.53
2022-12-25T12:46:30.516Z,100475.59
2022-12-25T12:50:40.767Z,100453.47
2022-12-25T12:54:59.045Z,100456.97
2022-12-25T12:59:00.659Z,100460.19
2022-12-25T13:03:36.135Z,100435.00
2022-12-25T13:08:02.261Z,100429.75
2022-12-25T13:12:08.449Z,100411.59
2022-12-25T13:16:24.302Z,100412.59
2022-12-25T13:20:38.516Z,100430.06
2022-12-25T13:24:40.045Z,100436.97
2022-12-25T13:28:41.724Z,100450.69
2022-12-25T13:32:45.643Z,100456.00
2022-12-25T13:36:48.457Z,100453.88
2022-12-25T13:41:14.747Z,100455.88
2022-12-25T13:45:23.751Z,100456.88
2022-12-25T13:49:25.289Z,100453.34
2022-12-25T13:53:27.038Z,100450.72
2022-12-25T13:57:34.487Z,100441.97
2022-12-25T14:01:42.501Z,100433.28
2022-12-25T14:05:44.157Z,100426.94
2022-12-25T14:09:48.645Z,100429.66
2022-12-25T14:13:54.479Z,100447.53
2022-12-25T14:17:56.830Z,100441.63
2022-12-25T14:22:21.517Z,100412.66
2022-12-25T14:26:27.535Z,100413.59
2022-12-25T14:30:29.537Z,100409.16
2022-12-25T14:34:32.471Z,100397.50
2022-12-25T14:38:35.108Z,100403.31
2022-12-25T14:42:36.853Z,100409.28
2022-12-25T14:46:38.412Z,100400.16
2022-12-25T14:50:50.913Z,100385.00
2022-12-25T14:55:00.018Z,100377.06
2022-12-25T14:59:03.552Z,100370.47
2022-12-25T15:03:08.319Z,100368.94
2022-12-25T15:07:30.802Z,100372.34
2022-12-25T15:11:32.853Z,100378.00
2022-12-25T15:15:34.767Z,100377.31
2022-12-25T15:19:38.813Z,100368.59
2022-12-25T15:23:40.609Z,100339.19
2022-12-25T15:27:42.512Z,100337.66
2022-12-25T15:31:44.205Z,100335.25
2022-12-25T15:35:45.972Z,100334.31
2022-12-25T15:39:47.707Z,100337.72
2022-12-25T15:43:49.368Z,100330.22
2022-12-25T15:47:51.377Z,100329.63
2022-12-25T15:51:52.929Z,100314.53
2022-12-25T15:55:54.503Z,100321.56
2022-12-25T15:59:56.015Z,100329.25
2022-12-25T16:03:57.629Z,100326.13
2022-12-25T16:07:59.266Z,100323.03
2022-12-25T16:12:00.951Z,100320.03
2022-12-25T16:16:03.568Z,100301.91
2022-12-25T16:20:06.577Z,100292.06
2022-12-25T16:24:08.623Z,100284.31
2022-12-25T16:28:10.355Z,100288.91
2022-12-25T16:32:12.700Z,100294.22
2022-12-25T16:36:14.290Z,100281.13
2022-12-25T16:40:15.843Z,100291.28
2022-12-25T16:44:17.530Z,100293.28
2022-12-25T16:48:19.099Z,100300.22
2022-12-25T16:52:21.049Z,100315.78
2022-12-25T16:56:28.179Z,100310.28
2022-12-25T17:00:29.785Z,100291.28
2022-12-25T17:04:31.321Z,100278.28
2022-12-25T17:08:32.823Z,100268.41
2022-12-25T17:12:34.643Z,100250.28
2022-12-25T17:16:38.051Z,100234.41
2022-12-25T17:20:39.653Z,100231.16
2022-12-25T17:24:41.622Z,100220.56
2022-12-25T17:28:43.372Z,100206.19
2022-12-25T17:32:44.906Z,100189.44
2022-12-25T17:36:46.682Z,100188.59
2022-12-25T17:40:56.450Z,100185.25
2022-12-25T17:44:58.011Z,100171.47
2022-12-25T17:49:01.051Z,100182.25
2022-12-25T17:53:04.691Z,100152.75
2022-12-25T17:57:06.444Z,100153.19
2022-12-25T18:01:14.072Z,100144.97
2022-12-25T18:05:15.737Z,100154.97
2022-12-25T18:09:18.838Z,100149.75
2022-12-25T18:13:20.350Z,100142.22
2022-12-25T18:17:21.883Z,100161.19
2022-12-25T18:21:23.689Z,100143.13
2022-12-25T18:25:25.517Z,100128.03
2022-12-25T18:29:27.139Z,100135.44
2022-12-25T18:33:28.635Z,100132.47
2022-12-25T18:37:35.887Z,100128.19
2022-12-25T18:42:01.077Z,100111.72
2022-12-25T18:46:04.324Z,100111.53
2022-12-25T18:50:07.141Z,100107.28
2022-12-25T18:54:10.533Z,100108.34
2022-12-25T18:58:12.011Z,100110.41
2022-12-25T19:02:15.329Z,100119.69
2022-12-25T19:06:25.754Z,100107.41
2022-12-25T19:10:27.391Z,100120.84
2022-12-25T19:14:29.135Z,100126.91
2022-12-25T19:18:30.910Z,100119.34
2022-12-25T19:22:32.439Z,100119.16
2022-12-25T19:26:35.759Z,100120.19
2022-12-25T19:30:38.426Z,100107.03
2022-12-25T19:34:40.002Z,100108.53
2022-12-25T19:38:43.203Z,100104.84
2022-12-25T19:42:44.829Z,100111.78
2022-12-25T19:46:46.435Z,100111.97
2022-12-25T19:50:47.991Z,100111.00
2022-12-25T19:54:52.843Z,100108.28
2022-12-25T19:58:55.490Z,100098.88
2022-12-25T20:02:57.290Z,100104.38
2022-12-25T20:06:59.034Z,100097.09
2022-12-25T20:11:00.606Z,100096.13
2022-12-25T20:15:02.183Z,100098.88
2022-12-25T20:19:04.963Z,100096.13
2022-12-25T20:23:06.900Z,100087.72
2022-12-25T20:27:08.478Z,100085.41
2022-12-25T20:31:20.307Z,100088.09
2022-12-25T20:35:21.835Z,100089.28
2022-12-25T20:39:23.512Z,100087.88
2022-12-25T20:43:25.141Z,100082.75
2022-12-25T20:47:26.826Z,100091.75
2022-12-25T20:51:28.357Z,100087.78
2022-12-25T20:55:29.907Z,100080.38
2022-12-25T20:59:37.119Z,100082.56
2022-12-25T21:03:40.730Z,100079.53
2022-12-25T21:07:42.367Z,100075.00
2022-12-25T21:11:44.059Z,100065.16
2022-12-25T21:15:47.005Z,100075.41
2022-12-25T21:19:48.548Z,100065.22
2022-12-25T21:23:50.896Z,100066.47
2022-12-25T21:27:52.675Z,100073.09
2022-12-25T21:32:12.836Z,100063.72
2022-12-25T21:36:15.001Z,100074.78
2022-12-25T21:40:16.824Z,100059.06
2022-12-25T21:44:18.323Z,100047.69
2022-12-25T21:48:19.880Z,100048.53
2022-12-25T21:52:21.521Z,100042.22
2022-12-25T21:56:23.050Z,100054.63
2022-12-25T22:00:24.558Z,100071.50
2022-12-25T22:04:26.468Z,100071.50
2022-12-25T22:08:32.236Z,100054.72
2022-12-25T22:12:52.742Z,100059.28
2022-12-25T22:17:12.932Z,100060.22
2022-12-25T22:21:21.522Z,100070.75
2022-12-25T22:25:24.619Z,100055.66
2022-12-25T22:29:26.242Z,100050.56
2022-12-25T22:33:29.266Z,100056.44
2022-12-25T22:37:30.851Z,100035.41
2022-12-25T22:41:33.876Z,100047.25
2022-12-25T22:45:35.492Z,100052.56
2022-12-25T22:49:37.155Z,100055.41
2022-12-25T22:53:38.652Z,100042.41
2022-12-25T22:57:40.119Z,100046.97
2022-12-25T23:01:42.331Z,100047.53
2022-12-25T23:05:43.943Z,100051.13
2022-12-25T23:09:45.500Z,100050.75
2022-12-25T23:14:05.889Z,100050.97
2022-12-25T23:18:26.270Z,100032.28
2022-12-25T23:22:46.299Z,100034.66
2022-12-25T23:26:47.803Z,100045.94
2022-12-25T23:30:49.362Z,100057.19
2022-12-25T23:34:52.202Z,100067.44
2022-12-25T23:38:53.762Z,100061.06
2022-12-25T23:42:55.898Z,100053.56
2022-12-25T23:46:57.559Z,100054.06
2022-12-25T23:51:05.399Z,100059.56
2022-12-25T23:55:08.444Z,100069.69
2022-12-25T23:59:11.020Z,100057.94
